sensor_id;sensor_type;location;lat;lon;timestamp;P1;durP1;ratioP1;P2;durP2;ratioP2
62256;SDS011;48240;52.962;5.790;2023-03-01T04:51:22;2.58;;;1.70;;
62256;SDS011;48240;52.962;5.790;2023-03-01T04:53:49;2.15;;;1.63;;
62256;SDS011;48240;52.962;5.790;2023-03-01T04:56:15;2.47;;;1.70;;
62256;SDS011;48240;52.962;5.790;2023-03-01T04:58:43;2.05;;;1.83;;
62256;SDS011;48240;52.962;5.790;2023-03-01T05:01:13;2.88;;;2.00;;
62256;SDS011;48240;52.962;5.790;2023-03-01T05:03:49;2.70;;;1.77;;
62256;SDS011;48240;52.962;5.790;2023-03-01T05:06:16;1.60;;;1.40;;
62256;SDS011;48240;52.962;5.790;2023-03-01T05:08:42;2.22;;;1.60;;
62256;SDS011;48240;52.962;5.790;2023-03-01T05:11:09;2.03;;;1.48;;
62256;SDS011;48240;52.962;5.790;2023-03-01T05:13:36;1.73;;;1.50;;
62256;SDS011;48240;52.962;5.790;2023-03-01T05:16:03;2.05;;;1.40;;
62256;SDS011;48240;52.962;5.790;2023-03-01T05:18:30;1.65;;;1.38;;
62256;SDS011;48240;52.962;5.790;2023-03-01T05:21:04;1.80;;;1.60;;
62256;SDS011;48240;52.962;5.790;2023-03-01T05:23:32;1.75;;;1.48;;
62256;SDS011;48240;52.962;5.790;2023-03-01T05:25:59;1.67;;;1.58;;
62256;SDS011;48240;52.962;5.790;2023-03-01T05:28:25;3.30;;;1.40;;
62256;SDS011;48240;52.962;5.790;2023-03-01T05:30:53;2.03;;;1.83;;
62256;SDS011;48240;52.962;5.790;2023-03-01T05:33:19;2.08;;;1.70;;
62256;SDS011;48240;52.962;5.790;2023-03-01T05:35:47;1.70;;;1.50;;
62256;SDS011;48240;52.962;5.790;2023-03-01T05:38:14;2.85;;;1.85;;
62256;SDS011;48240;52.962;5.790;2023-03-01T05:40:44;2.25;;;1.58;;
62256;SDS011;48240;52.962;5.790;2023-03-01T05:43:11;2.10;;;1.27;;
62256;SDS011;48240;52.962;5.790;2023-03-01T05:45:37;1.30;;;1.20;;
62256;SDS011;48240;52.962;5.790;2023-03-01T05:48:04;1.45;;;1.27;;
62256;SDS011;48240;52.962;5.790;2023-03-01T05:50:34;1.65;;;1.30;;
62256;SDS011;48240;52.962;5.790;2023-03-01T05:53:02;4.23;;;1.27;;
62256;SDS011;48240;52.962;5.790;2023-03-01T05:55:30;1.30;;;1.20;;
62256;SDS011;48240;52.962;5.790;2023-03-01T05:57:58;1.70;;;1.30;;
62256;SDS011;48240;52.962;5.790;2023-03-01T06:00:25;1.30;;;1.20;;
62256;SDS011;48240;52.962;5.790;2023-03-01T06:02:52;2.00;;;1.42;;
62256;SDS011;48240;52.962;5.790;2023-03-01T06:05:19;1.60;;;1.20;;
62256;SDS011;48240;52.962;5.790;2023-03-01T06:07:45;1.70;;;1.45;;
62256;SDS011;48240;52.962;5.790;2023-03-01T06:10:11;1.50;;;1.23;;
62256;SDS011;48240;52.962;5.790;2023-03-01T06:12:38;1.60;;;1.20;;
62256;SDS011;48240;52.962;5.790;2023-03-01T06:15:05;1.60;;;1.27;;
62256;SDS011;48240;52.962;5.790;2023-03-01T06:17:32;1.75;;;1.38;;
62256;SDS011;48240;52.962;5.790;2023-03-01T06:20:03;1.75;;;1.40;;
62256;SDS011;48240;52.962;5.790;2023-03-01T06:22:29;2.80;;;1.40;;
62256;SDS011;48240;52.962;5.790;2023-03-01T06:24:55;3.33;;;1.23;;
62256;SDS011;48240;52.962;5.790;2023-03-01T06:27:21;1.90;;;1.67;;
62256;SDS011;48240;52.962;5.790;2023-03-01T06:29:48;1.75;;;1.38;;
62256;SDS011;48240;52.962;5.790;2023-03-01T06:32:14;9.60;;;1.45;;
62256;SDS011;48240;52.962;5.790;2023-03-01T06:34:40;2.03;;;1.42;;
62256;SDS011;48240;52.962;5.790;2023-03-01T06:37:07;1.65;;;1.20;;
62256;SDS011;48240;52.962;5.790;2023-03-01T06:39:33;1.98;;;1.35;;
62256;SDS011;48240;52.962;5.790;2023-03-01T06:41:59;2.75;;;1.10;;
62256;SDS011;48240;52.962;5.790;2023-03-01T06:44:26;1.42;;;1.33;;
62256;SDS011;48240;52.962;5.790;2023-03-01T06:46:52;2.42;;;1.30;;
62256;SDS011;48240;52.962;5.790;2023-03-01T06:49:19;2.15;;;1.80;;
62256;SDS011;48240;52.962;5.790;2023-03-01T06:51:46;2.05;;;1.60;;
62256;SDS011;48240;52.962;5.790;2023-03-01T06:54:12;2.03;;;1.63;;
62256;SDS011;48240;52.962;5.790;2023-03-01T06:56:38;1.63;;;1.30;;
62256;SDS011;48240;52.962;5.790;2023-03-01T06:59:04;2.28;;;1.40;;
62256;SDS011;48240;52.962;5.790;2023-03-01T07:01:31;1.45;;;1.30;;
62256;SDS011;48240;52.962;5.790;2023-03-01T07:03:57;1.42;;;1.30;;
62256;SDS011;48240;52.962;5.790;2023-03-01T07:06:23;1.58;;;1.40;;
62256;SDS011;48240;52.962;5.790;2023-03-01T07:08:49;1.55;;;1.30;;
62256;SDS011;48240;52.962;5.790;2023-03-01T07:11:15;1.48;;;1.38;;
62256;SDS011;48240;52.962;5.790;2023-03-01T07:13:41;1.40;;;1.30;;
62256;SDS011;48240;52.962;5.790;2023-03-01T07:16:08;1.42;;;1.30;;
62256;SDS011;48240;52.962;5.790;2023-03-01T07:18:34;1.40;;;1.20;;
62256;SDS011;48240;52.962;5.790;2023-03-01T07:21:04;2.45;;;1.40;;
62256;SDS011;48240;52.962;5.790;2023-03-01T07:23:30;1.90;;;1.40;;
62256;SDS011;48240;52.962;5.790;2023-03-01T07:25:56;1.77;;;1.35;;
62256;SDS011;48240;52.962;5.790;2023-03-01T07:28:23;2.22;;;1.30;;
62256;SDS011;48240;52.962;5.790;2023-03-01T07:30:49;1.42;;;1.20;;
62256;SDS011;48240;52.962;5.790;2023-03-01T07:33:16;1.70;;;1.35;;
62256;SDS011;48240;52.962;5.790;2023-03-01T07:35:42;1.80;;;1.30;;
62256;SDS011;48240;52.962;5.790;2023-03-01T07:38:08;1.75;;;1.23;;
62256;SDS011;48240;52.962;5.790;2023-03-01T07:40:35;3.40;;;1.45;;
62256;SDS011;48240;52.962;5.790;2023-03-01T07:43:01;1.70;;;1.60;;
62256;SDS011;48240;52.962;5.790;2023-03-01T07:45:27;2.03;;;1.48;;
62256;SDS011;48240;52.962;5.790;2023-03-01T07:47:54;1.50;;;1.40;;
62256;SDS011;48240;52.962;5.790;2023-03-01T07:50:20;1.58;;;1.30;;
62256;SDS011;48240;52.962;5.790;2023-03-01T07:52:47;2.58;;;1.55;;
62256;SDS011;48240;52.962;5.790;2023-03-01T07:55:14;1.45;;;1.35;;
62256;SDS011;48240;52.962;5.790;2023-03-01T07:57:40;1.73;;;1.55;;
62256;SDS011;48240;52.962;5.790;2023-03-01T08:00:07;1.77;;;1.55;;
62256;SDS011;48240;52.962;5.790;2023-03-01T08:02:33;2.13;;;1.80;;
62256;SDS011;48240;52.962;5.790;2023-03-01T08:04:59;1.50;;;1.40;;
62256;SDS011;48240;52.962;5.790;2023-03-01T08:07:25;2.08;;;1.70;;
62256;SDS011;48240;52.962;5.790;2023-03-01T08:09:51;2.40;;;1.73;;
62256;SDS011;48240;52.962;5.790;2023-03-01T08:12:17;1.88;;;1.60;;
62256;SDS011;48240;52.962;5.790;2023-03-01T08:14:43;2.28;;;1.90;;
62256;SDS011;48240;52.962;5.790;2023-03-01T08:17:09;1.77;;;1.63;;
62256;SDS011;48240;52.962;5.790;2023-03-01T08:19:36;2.20;;;1.73;;
62256;SDS011;48240;52.962;5.790;2023-03-01T08:22:02;2.17;;;1.67;;
62256;SDS011;48240;52.962;5.790;2023-03-01T08:24:28;2.40;;;2.00;;
62256;SDS011;48240;52.962;5.790;2023-03-01T08:26:54;1.85;;;1.50;;
62256;SDS011;48240;52.962;5.790;2023-03-01T08:29:20;2.00;;;1.80;;
62256;SDS011;48240;52.962;5.790;2023-03-01T08:31:47;2.20;;;2.00;;
62256;SDS011;48240;52.962;5.790;2023-03-01T08:34:14;2.38;;;1.60;;
62256;SDS011;48240;52.962;5.790;2023-03-01T08:36:44;2.08;;;1.88;;
62256;SDS011;48240;52.962;5.790;2023-03-01T08:39:12;2.10;;;1.90;;
62256;SDS011;48240;52.962;5.790;2023-03-01T08:41:38;2.63;;;2.15;;
62256;SDS011;48240;52.962;5.790;2023-03-01T08:44:05;2.55;;;2.00;;
62256;SDS011;48240;52.962;5.790;2023-03-01T08:46:35;3.83;;;2.00;;
62256;SDS011;48240;52.962;5.790;2023-03-01T08:49:20;2.75;;;2.40;;
62256;SDS011;48240;52.962;5.790;2023-03-01T08:51:46;3.05;;;2.05;;
62256;SDS011;48240;52.962;5.790;2023-03-01T08:54:14;2.20;;;1.95;;
62256;SDS011;48240;52.962;5.790;2023-03-01T08:56:40;10.93;;;2.03;;
62256;SDS011;48240;52.962;5.790;2023-03-01T08:59:06;3.40;;;2.13;;
62256;SDS011;48240;52.962;5.790;2023-03-01T09:01:32;6.20;;;2.10;;
62256;SDS011;48240;52.962;5.790;2023-03-01T09:03:59;3.92;;;2.33;;
62256;SDS011;48240;52.962;5.790;2023-03-01T09:06:25;3.33;;;2.30;;
62256;SDS011;48240;52.962;5.790;2023-03-01T09:08:51;3.88;;;2.25;;
62256;SDS011;48240;52.962;5.790;2023-03-01T09:11:20;4.60;;;2.05;;
62256;SDS011;48240;52.962;5.790;2023-03-01T09:13:47;3.38;;;2.10;;
62256;SDS011;48240;52.962;5.790;2023-03-01T09:16:14;5.72;;;2.35;;
62256;SDS011;48240;52.962;5.790;2023-03-01T09:18:42;3.15;;;2.35;;
62256;SDS011;48240;52.962;5.790;2023-03-01T09:21:10;3.35;;;2.40;;
62256;SDS011;48240;52.962;5.790;2023-03-01T09:23:37;2.58;;;2.10;;
62256;SDS011;48240;52.962;5.790;2023-03-01T09:26:04;4.45;;;2.05;;
62256;SDS011;48240;52.962;5.790;2023-03-01T09:28:31;3.38;;;1.98;;
62256;SDS011;48240;52.962;5.790;2023-03-01T09:30:57;4.10;;;2.30;;
62256;SDS011;48240;52.962;5.790;2023-03-01T09:33:24;3.17;;;2.17;;
62256;SDS011;48240;52.962;5.790;2023-03-01T09:35:55;2.83;;;2.05;;
62256;SDS011;48240;52.962;5.790;2023-03-01T09:38:21;2.63;;;2.08;;
62256;SDS011;48240;52.962;5.790;2023-03-01T09:40:47;4.68;;;2.42;;
62256;SDS011;48240;52.962;5.790;2023-03-01T09:43:23;3.95;;;2.42;;
62256;SDS011;48240;52.962;5.790;2023-03-01T09:45:52;3.58;;;2.25;;
62256;SDS011;48240;52.962;5.790;2023-03-01T09:48:21;2.38;;;1.90;;
62256;SDS011;48240;52.962;5.790;2023-03-01T09:50:48;2.88;;;2.03;;
62256;SDS011;48240;52.962;5.790;2023-03-01T09:53:16;3.90;;;2.42;;
62256;SDS011;48240;52.962;5.790;2023-03-01T09:55:43;4.55;;;2.40;;
62256;SDS011;48240;52.962;5.790;2023-03-01T10:00:41;3.70;;;2.10;;
62256;SDS011;48240;52.962;5.790;2023-03-01T10:03:11;2.63;;;1.98;;
62256;SDS011;48240;52.962;5.790;2023-03-01T10:05:46;3.13;;;2.28;;
62256;SDS011;48240;52.962;5.790;2023-03-01T10:10:43;3.53;;;1.90;;
62256;SDS011;48240;52.962;5.790;2023-03-01T10:15:39;2.03;;;1.73;;
62256;SDS011;48240;52.962;5.790;2023-03-01T10:18:50;7.07;;;2.35;;
62256;SDS011;48240;52.962;5.790;2023-03-01T10:23:24;7.63;;;2.20;;
62256;SDS011;48240;52.962;5.790;2023-03-01T10:31:09;4.03;;;2.05;;
62256;SDS011;48240;52.962;5.790;2023-03-01T10:36:07;3.50;;;1.83;;
62256;SDS011;48240;52.962;5.790;2023-03-01T10:41:14;3.95;;;2.28;;
62256;SDS011;48240;52.962;5.790;2023-03-01T10:46:23;7.40;;;2.28;;
62256;SDS011;48240;52.962;5.790;2023-03-01T10:53:57;5.32;;;2.00;;
62256;SDS011;48240;52.962;5.790;2023-03-01T10:56:23;4.35;;;3.05;;
62256;SDS011;48240;52.962;5.790;2023-03-01T10:58:57;3.35;;;2.00;;
62256;SDS011;48240;52.962;5.790;2023-03-01T11:01:34;4.68;;;2.10;;
62256;SDS011;48240;52.962;5.790;2023-03-01T11:06:33;3.67;;;2.28;;
62256;SDS011;48240;52.962;5.790;2023-03-01T11:09:15;4.88;;;2.60;;
62256;SDS011;48240;52.962;5.790;2023-03-01T11:11:42;3.45;;;2.63;;
62256;SDS011;48240;52.962;5.790;2023-03-01T11:14:18;3.53;;;2.40;;
62256;SDS011;48240;52.962;5.790;2023-03-01T11:16:47;3.33;;;2.25;;
62256;SDS011;48240;52.962;5.790;2023-03-01T11:19:15;3.40;;;2.83;;
62256;SDS011;48240;52.962;5.790;2023-03-01T11:21:55;3.55;;;2.55;;
62256;SDS011;48240;52.962;5.790;2023-03-01T11:24:27;3.07;;;2.43;;
62256;SDS011;48240;52.962;5.790;2023-03-01T11:26:55;3.55;;;3.00;;
62256;SDS011;48240;52.962;5.790;2023-03-01T11:29:26;3.53;;;2.75;;
62256;SDS011;48240;52.962;5.790;2023-03-01T11:31:54;3.45;;;2.80;;
62256;SDS011;48240;52.962;5.790;2023-03-01T11:34:32;3.60;;;2.83;;
62256;SDS011;48240;52.962;5.790;2023-03-01T11:37:02;4.82;;;2.80;;
62256;SDS011;48240;52.962;5.790;2023-03-01T11:39:39;4.30;;;2.90;;
62256;SDS011;48240;52.962;5.790;2023-03-01T11:44:40;3.70;;;2.90;;
62256;SDS011;48240;52.962;5.790;2023-03-01T11:50:11;5.85;;;3.13;;
62256;SDS011;48240;52.962;5.790;2023-03-01T11:58:22;3.80;;;2.65;;
62256;SDS011;48240;52.962;5.790;2023-03-01T12:18:45;4.32;;;2.88;;
62256;SDS011;48240;52.962;5.790;2023-03-01T12:29:02;4.78;;;2.95;;
62256;SDS011;48240;52.962;5.790;2023-03-01T12:34:44;4.38;;;3.10;;
62256;SDS011;48240;52.962;5.790;2023-03-01T12:50:28;4.32;;;2.70;;
62256;SDS011;48240;52.962;5.790;2023-03-01T12:52:58;5.88;;;2.75;;
62256;SDS011;48240;52.962;5.790;2023-03-01T12:55:34;5.60;;;3.22;;
62256;SDS011;48240;52.962;5.790;2023-03-01T13:00:39;5.43;;;2.60;;
62256;SDS011;48240;52.962;5.790;2023-03-01T13:03:19;3.75;;;2.47;;
62256;SDS011;48240;52.962;5.790;2023-03-01T13:05:56;4.65;;;2.40;;
62256;SDS011;48240;52.962;5.790;2023-03-01T13:11:15;4.43;;;2.97;;
62256;SDS011;48240;52.962;5.790;2023-03-01T13:13:42;4.72;;;3.08;;
62256;SDS011;48240;52.962;5.790;2023-03-01T13:18:48;11.82;;;3.28;;
62256;SDS011;48240;52.962;5.790;2023-03-01T13:21:14;6.80;;;2.75;;
62256;SDS011;48240;52.962;5.790;2023-03-01T13:23:54;4.30;;;2.53;;
62256;SDS011;48240;52.962;5.790;2023-03-01T13:26:20;5.85;;;3.08;;
62256;SDS011;48240;52.962;5.790;2023-03-01T13:28:48;6.10;;;3.50;;
62256;SDS011;48240;52.962;5.790;2023-03-01T13:33:48;4.03;;;2.95;;
62256;SDS011;48240;52.962;5.790;2023-03-01T13:46:35;3.63;;;2.50;;
62256;SDS011;48240;52.962;5.790;2023-03-01T13:49:01;5.68;;;2.83;;
62256;SDS011;48240;52.962;5.790;2023-03-01T13:51:27;3.72;;;2.67;;
62256;SDS011;48240;52.962;5.790;2023-03-01T13:53:54;3.92;;;2.28;;
62256;SDS011;48240;52.962;5.790;2023-03-01T13:56:24;4.25;;;2.85;;
62256;SDS011;48240;52.962;5.790;2023-03-01T13:58:58;4.63;;;2.70;;
62256;SDS011;48240;52.962;5.790;2023-03-01T14:01:29;4.25;;;3.08;;
62256;SDS011;48240;52.962;5.790;2023-03-01T14:03:55;5.43;;;3.17;;
62256;SDS011;48240;52.962;5.790;2023-03-01T14:06:28;4.90;;;3.05;;
62256;SDS011;48240;52.962;5.790;2023-03-01T14:19:25;7.75;;;3.50;;
62256;SDS011;48240;52.962;5.790;2023-03-01T14:22:03;5.03;;;3.28;;
62256;SDS011;48240;52.962;5.790;2023-03-01T14:24:30;5.35;;;3.38;;
62256;SDS011;48240;52.962;5.790;2023-03-01T14:26:58;4.82;;;3.55;;
62256;SDS011;48240;52.962;5.790;2023-03-01T14:29:27;5.65;;;3.20;;
62256;SDS011;48240;52.962;5.790;2023-03-01T14:31:53;9.05;;;3.75;;
62256;SDS011;48240;52.962;5.790;2023-03-01T14:34:20;10.35;;;3.53;;
62256;SDS011;48240;52.962;5.790;2023-03-01T14:36:47;6.50;;;4.18;;
62256;SDS011;48240;52.962;5.790;2023-03-01T14:39:17;4.82;;;3.47;;
62256;SDS011;48240;52.962;5.790;2023-03-01T14:41:43;5.38;;;3.22;;
62256;SDS011;48240;52.962;5.790;2023-03-01T14:44:12;5.60;;;3.20;;
62256;SDS011;48240;52.962;5.790;2023-03-01T14:46:41;4.95;;;3.30;;
62256;SDS011;48240;52.962;5.790;2023-03-01T14:49:16;5.28;;;2.80;;
62256;SDS011;48240;52.962;5.790;2023-03-01T14:54:46;5.05;;;3.10;;
62256;SDS011;48240;52.962;5.790;2023-03-01T14:57:17;5.13;;;3.00;;
62256;SDS011;48240;52.962;5.790;2023-03-01T14:59:43;5.13;;;3.20;;
62256;SDS011;48240;52.962;5.790;2023-03-01T15:02:17;5.07;;;2.88;;
62256;SDS011;48240;52.962;5.790;2023-03-01T15:04:48;5.45;;;3.40;;
62256;SDS011;48240;52.962;5.790;2023-03-01T15:07:15;3.50;;;2.80;;
62256;SDS011;48240;52.962;5.790;2023-03-01T15:09:41;4.35;;;3.40;;
62256;SDS011;48240;52.962;5.790;2023-03-01T15:14:52;4.20;;;2.50;;
62256;SDS011;48240;52.962;5.790;2023-03-01T15:17:34;8.82;;;2.92;;
62256;SDS011;48240;52.962;5.790;2023-03-01T15:20:02;5.60;;;3.05;;
62256;SDS011;48240;52.962;5.790;2023-03-01T15:22:29;3.85;;;2.80;;
62256;SDS011;48240;52.962;5.790;2023-03-01T15:24:55;4.00;;;2.88;;
62256;SDS011;48240;52.962;5.790;2023-03-01T15:27:22;3.28;;;2.53;;
62256;SDS011;48240;52.962;5.790;2023-03-01T15:29:52;7.10;;;2.90;;
62256;SDS011;48240;52.962;5.790;2023-03-01T15:32:24;4.22;;;2.65;;
62256;SDS011;48240;52.962;5.790;2023-03-01T15:34:50;6.55;;;2.47;;
62256;SDS011;48240;52.962;5.790;2023-03-01T15:37:36;5.85;;;2.80;;
62256;SDS011;48240;52.962;5.790;2023-03-01T15:40:17;5.93;;;3.17;;
62256;SDS011;48240;52.962;5.790;2023-03-01T15:42:43;5.47;;;3.22;;
62256;SDS011;48240;52.962;5.790;2023-03-01T15:47:49;4.40;;;3.00;;
62256;SDS011;48240;52.962;5.790;2023-03-01T15:50:26;4.18;;;2.60;;
62256;SDS011;48240;52.962;5.790;2023-03-01T15:52:53;5.55;;;3.17;;
62256;SDS011;48240;52.962;5.790;2023-03-01T15:55:21;4.45;;;2.95;;
62256;SDS011;48240;52.962;5.790;2023-03-01T15:57:48;9.20;;;3.50;;
62256;SDS011;48240;52.962;5.790;2023-03-01T16:00:14;4.93;;;3.60;;
62256;SDS011;48240;52.962;5.790;2023-03-01T16:02:42;4.88;;;3.17;;
62256;SDS011;48240;52.962;5.790;2023-03-01T16:05:12;6.07;;;3.08;;
62256;SDS011;48240;52.962;5.790;2023-03-01T16:07:41;5.18;;;3.30;;
62256;SDS011;48240;52.962;5.790;2023-03-01T16:10:07;8.80;;;3.35;;
62256;SDS011;48240;52.962;5.790;2023-03-01T16:12:33;5.20;;;3.20;;
62256;SDS011;48240;52.962;5.790;2023-03-01T16:14:59;9.25;;;3.72;;
62256;SDS011;48240;52.962;5.790;2023-03-01T16:17:25;8.77;;;3.78;;
62256;SDS011;48240;52.962;5.790;2023-03-01T16:19:51;8.43;;;3.50;;
62256;SDS011;48240;52.962;5.790;2023-03-01T16:22:17;13.20;;;4.18;;
62256;SDS011;48240;52.962;5.790;2023-03-01T16:24:49;7.10;;;4.40;;
62256;SDS011;48240;52.962;5.790;2023-03-01T16:27:15;10.85;;;4.43;;
62256;SDS011;48240;52.962;5.790;2023-03-01T16:29:42;11.30;;;5.00;;
62256;SDS011;48240;52.962;5.790;2023-03-01T16:32:08;11.63;;;5.10;;
62256;SDS011;48240;52.962;5.790;2023-03-01T16:34:34;12.43;;;4.20;;
62256;SDS011;48240;52.962;5.790;2023-03-01T16:37:00;10.40;;;4.38;;
62256;SDS011;48240;52.962;5.790;2023-03-01T16:39:26;14.77;;;5.05;;
62256;SDS011;48240;52.962;5.790;2023-03-01T16:41:52;16.20;;;5.20;;
62256;SDS011;48240;52.962;5.790;2023-03-01T16:44:18;11.52;;;5.63;;
62256;SDS011;48240;52.962;5.790;2023-03-01T16:46:44;13.27;;;4.68;;
62256;SDS011;48240;52.962;5.790;2023-03-01T16:49:10;11.55;;;4.72;;
62256;SDS011;48240;52.962;5.790;2023-03-01T16:51:36;14.57;;;4.90;;
62256;SDS011;48240;52.962;5.790;2023-03-01T16:54:03;9.20;;;4.60;;
62256;SDS011;48240;52.962;5.790;2023-03-01T16:56:29;11.95;;;5.05;;
62256;SDS011;48240;52.962;5.790;2023-03-01T16:58:57;14.82;;;4.30;;
62256;SDS011;48240;52.962;5.790;2023-03-01T17:01:24;12.00;;;4.10;;
62256;SDS011;48240;52.962;5.790;2023-03-01T17:03:50;10.63;;;4.63;;
62256;SDS011;48240;52.962;5.790;2023-03-01T17:06:19;10.43;;;5.53;;
62256;SDS011;48240;52.962;5.790;2023-03-01T17:08:47;10.13;;;5.38;;
62256;SDS011;48240;52.962;5.790;2023-03-01T17:11:14;14.57;;;7.45;;
62256;SDS011;48240;52.962;5.790;2023-03-01T17:13:41;17.48;;;7.10;;
62256;SDS011;48240;52.962;5.790;2023-03-01T17:16:08;15.32;;;6.78;;
62256;SDS011;48240;52.962;5.790;2023-03-01T17:18:34;15.57;;;7.75;;
62256;SDS011;48240;52.962;5.790;2023-03-01T17:21:02;15.68;;;7.60;;
62256;SDS011;48240;52.962;5.790;2023-03-01T17:23:29;18.42;;;9.02;;
62256;SDS011;48240;52.962;5.790;2023-03-01T17:25:56;12.80;;;6.88;;
62256;SDS011;48240;52.962;5.790;2023-03-01T17:28:23;12.52;;;7.00;;
62256;SDS011;48240;52.962;5.790;2023-03-01T17:30:50;17.65;;;8.30;;
62256;SDS011;48240;52.962;5.790;2023-03-01T17:33:16;17.42;;;7.88;;
62256;SDS011;48240;52.962;5.790;2023-03-01T17:35:43;14.15;;;7.45;;
62256;SDS011;48240;52.962;5.790;2023-03-01T17:38:11;20.80;;;7.55;;
62256;SDS011;48240;52.962;5.790;2023-03-01T17:40:38;11.88;;;6.53;;
62256;SDS011;48240;52.962;5.790;2023-03-01T17:43:04;15.50;;;6.22;;
62256;SDS011;48240;52.962;5.790;2023-03-01T17:45:30;14.43;;;5.88;;
62256;SDS011;48240;52.962;5.790;2023-03-01T17:47:56;13.40;;;7.30;;
62256;SDS011;48240;52.962;5.790;2023-03-01T17:50:22;11.10;;;6.22;;
62256;SDS011;48240;52.962;5.790;2023-03-01T17:52:48;13.90;;;6.53;;
62256;SDS011;48240;52.962;5.790;2023-03-01T17:55:15;9.80;;;5.90;;
62256;SDS011;48240;52.962;5.790;2023-03-01T17:57:41;11.48;;;6.10;;
62256;SDS011;48240;52.962;5.790;2023-03-01T18:00:11;14.27;;;6.32;;
62256;SDS011;48240;52.962;5.790;2023-03-01T18:02:38;14.45;;;6.00;;
62256;SDS011;48240;52.962;5.790;2023-03-01T18:05:04;11.57;;;5.82;;
62256;SDS011;48240;52.962;5.790;2023-03-01T18:07:30;12.48;;;5.80;;
62256;SDS011;48240;52.962;5.790;2023-03-01T18:09:57;8.57;;;5.20;;
62256;SDS011;48240;52.962;5.790;2023-03-01T18:12:23;9.52;;;5.80;;
62256;SDS011;48240;52.962;5.790;2023-03-01T18:14:49;10.32;;;5.43;;
62256;SDS011;48240;52.962;5.790;2023-03-01T18:17:19;12.85;;;5.70;;
62256;SDS011;48240;52.962;5.790;2023-03-01T18:19:45;11.85;;;5.68;;
62256;SDS011;48240;52.962;5.790;2023-03-01T18:22:11;8.18;;;5.10;;
62256;SDS011;48240;52.962;5.790;2023-03-01T18:24:38;10.80;;;5.18;;
62256;SDS011;48240;52.962;5.790;2023-03-01T18:27:04;8.45;;;5.40;;
62256;SDS011;48240;52.962;5.790;2023-03-01T18:29:30;10.45;;;4.97;;
62256;SDS011;48240;52.962;5.790;2023-03-01T18:31:56;9.40;;;4.80;;
62256;SDS011;48240;52.962;5.790;2023-03-01T18:34:22;9.43;;;5.85;;
62256;SDS011;48240;52.962;5.790;2023-03-01T18:36:48;8.75;;;5.18;;
62256;SDS011;48240;52.962;5.790;2023-03-01T18:39:19;10.30;;;5.32;;
62256;SDS011;48240;52.962;5.790;2023-03-01T18:41:46;9.38;;;5.28;;
62256;SDS011;48240;52.962;5.790;2023-03-01T18:44:12;12.85;;;5.50;;
62256;SDS011;48240;52.962;5.790;2023-03-01T18:46:38;8.20;;;5.35;;
62256;SDS011;48240;52.962;5.790;2023-03-01T18:49:07;16.33;;;5.30;;
62256;SDS011;48240;52.962;5.790;2023-03-01T18:51:34;10.25;;;5.10;;
62256;SDS011;48240;52.962;5.790;2023-03-01T18:54:00;8.25;;;4.88;;
62256;SDS011;48240;52.962;5.790;2023-03-01T18:56:30;8.80;;;5.20;;
62256;SDS011;48240;52.962;5.790;2023-03-01T18:58:56;9.55;;;4.78;;
62256;SDS011;48240;52.962;5.790;2023-03-01T19:01:24;11.57;;;4.93;;
62256;SDS011;48240;52.962;5.790;2023-03-01T19:03:50;8.75;;;4.40;;
62256;SDS011;48240;52.962;5.790;2023-03-01T19:06:17;7.00;;;4.65;;
62256;SDS011;48240;52.962;5.790;2023-03-01T19:08:43;7.20;;;4.68;;
62256;SDS011;48240;52.962;5.790;2023-03-01T19:11:09;10.15;;;4.70;;
62256;SDS011;48240;52.962;5.790;2023-03-01T19:13:36;7.07;;;4.30;;
62256;SDS011;48240;52.962;5.790;2023-03-01T19:18:29;6.35;;;4.25;;
62256;SDS011;48240;52.962;5.790;2023-03-01T19:20:59;7.80;;;4.70;;
62256;SDS011;48240;52.962;5.790;2023-03-01T19:23:25;5.70;;;4.03;;
62256;SDS011;48240;52.962;5.790;2023-03-01T19:25:57;7.55;;;3.85;;
62256;SDS011;48240;52.962;5.790;2023-03-01T19:30:49;5.40;;;3.50;;
62256;SDS011;48240;52.962;5.790;2023-03-01T19:33:15;5.82;;;3.58;;
62256;SDS011;48240;52.962;5.790;2023-03-01T19:35:41;8.32;;;3.65;;
62256;SDS011;48240;52.962;5.790;2023-03-01T19:38:07;5.60;;;3.70;;
62256;SDS011;48240;52.962;5.790;2023-03-01T19:40:34;6.82;;;3.55;;
62256;SDS011;48240;52.962;5.790;2023-03-01T19:43:00;5.75;;;3.60;;
62256;SDS011;48240;52.962;5.790;2023-03-01T19:45:26;5.95;;;3.60;;
62256;SDS011;48240;52.962;5.790;2023-03-01T19:47:52;5.95;;;3.20;;
62256;SDS011;48240;52.962;5.790;2023-03-01T19:50:19;7.15;;;3.45;;
62256;SDS011;48240;52.962;5.790;2023-03-01T19:52:45;5.03;;;3.40;;
62256;SDS011;48240;52.962;5.790;2023-03-01T19:55:11;5.30;;;3.47;;
62256;SDS011;48240;52.962;5.790;2023-03-01T19:57:37;4.63;;;3.35;;
62256;SDS011;48240;52.962;5.790;2023-03-01T20:00:03;7.25;;;3.67;;
62256;SDS011;48240;52.962;5.790;2023-03-01T20:02:29;4.68;;;3.15;;
62256;SDS011;48240;52.962;5.790;2023-03-01T20:04:55;6.80;;;3.03;;
62256;SDS011;48240;52.962;5.790;2023-03-01T20:07:22;6.15;;;3.40;;
62256;SDS011;48240;52.962;5.790;2023-03-01T20:09:48;5.85;;;3.15;;
62256;SDS011;48240;52.962;5.790;2023-03-01T20:12:14;5.00;;;3.38;;
62256;SDS011;48240;52.962;5.790;2023-03-01T20:14:40;10.25;;;4.78;;
62256;SDS011;48240;52.962;5.790;2023-03-01T20:17:06;7.32;;;4.00;;
62256;SDS011;48240;52.962;5.790;2023-03-01T20:19:32;7.15;;;3.88;;
62256;SDS011;48240;52.962;5.790;2023-03-01T20:21:58;6.47;;;3.72;;
62256;SDS011;48240;52.962;5.790;2023-03-01T20:24:24;4.95;;;3.33;;
62256;SDS011;48240;52.962;5.790;2023-03-01T20:26:51;5.70;;;3.63;;
62256;SDS011;48240;52.962;5.790;2023-03-01T20:29:17;9.00;;;3.75;;
62256;SDS011;48240;52.962;5.790;2023-03-01T20:31:44;9.10;;;3.63;;
62256;SDS011;48240;52.962;5.790;2023-03-01T20:34:10;5.90;;;3.33;;
62256;SDS011;48240;52.962;5.790;2023-03-01T20:36:36;5.20;;;3.38;;
62256;SDS011;48240;52.962;5.790;2023-03-01T20:39:03;6.93;;;3.75;;
62256;SDS011;48240;52.962;5.790;2023-03-01T20:41:29;5.68;;;3.58;;
62256;SDS011;48240;52.962;5.790;2023-03-01T20:43:55;4.93;;;3.22;;
62256;SDS011;48240;52.962;5.790;2023-03-01T20:46:23;7.18;;;3.30;;
62256;SDS011;48240;52.962;5.790;2023-03-01T20:48:50;6.13;;;3.30;;
62256;SDS011;48240;52.962;5.790;2023-03-01T20:51:17;6.60;;;3.63;;
62256;SDS011;48240;52.962;5.790;2023-03-01T20:53:43;5.85;;;3.15;;
62256;SDS011;48240;52.962;5.790;2023-03-01T20:56:10;4.65;;;3.38;;
62256;SDS011;48240;52.962;5.790;2023-03-01T20:58:37;10.63;;;3.92;;
62256;SDS011;48240;52.962;5.790;2023-03-01T21:01:04;5.03;;;3.30;;
62256;SDS011;48240;52.962;5.790;2023-03-01T21:03:30;5.13;;;3.58;;
62256;SDS011;48240;52.962;5.790;2023-03-01T21:05:57;5.05;;;3.20;;
62256;SDS011;48240;52.962;5.790;2023-03-01T21:08:24;7.32;;;3.40;;
62256;SDS011;48240;52.962;5.790;2023-03-01T21:10:51;4.97;;;3.88;;
62256;SDS011;48240;52.962;5.790;2023-03-01T21:13:17;5.20;;;3.65;;
62256;SDS011;48240;52.962;5.790;2023-03-01T21:18:18;5.50;;;3.47;;
62256;SDS011;48240;52.962;5.790;2023-03-01T21:20:45;6.05;;;3.67;;
62256;SDS011;48240;52.962;5.790;2023-03-01T21:23:11;5.68;;;3.80;;
62256;SDS011;48240;52.962;5.790;2023-03-01T21:25:37;6.35;;;3.75;;
62256;SDS011;48240;52.962;5.790;2023-03-01T21:28:03;7.30;;;4.32;;
62256;SDS011;48240;52.962;5.790;2023-03-01T21:30:29;6.18;;;4.90;;
62256;SDS011;48240;52.962;5.790;2023-03-01T21:32:55;5.22;;;3.88;;
62256;SDS011;48240;52.962;5.790;2023-03-01T21:35:22;5.75;;;4.57;;
62256;SDS011;48240;52.962;5.790;2023-03-01T21:37:48;6.10;;;4.20;;
62256;SDS011;48240;52.962;5.790;2023-03-01T21:40:14;6.45;;;4.78;;
62256;SDS011;48240;52.962;5.790;2023-03-01T21:42:40;5.60;;;4.13;;
62256;SDS011;48240;52.962;5.790;2023-03-01T21:45:08;7.15;;;4.38;;
62256;SDS011;48240;52.962;5.790;2023-03-01T21:47:34;5.75;;;4.38;;
62256;SDS011;48240;52.962;5.790;2023-03-01T21:50:01;6.03;;;4.20;;